Terminal Aerodrome Forecast
Issued by NWS Knoxville/Tri Cities, TN

Home | Current Version | Previous Version | Text Only | Print | Product List | Glossary On
Versions: 1 2 3 4 5 6 7 8 9 10 11 12 13 14 15 16 17 18 19 20 21 22 23 24 25 26 27 28 29
000
FTUS44 KMRX 291122
TAFTRI
TAF
KTRI 291122Z 2912/3012 VRB03KT 2SM -RA BR SCT006 OVC015
      TEMPO 2912/2916 1SM -DZ BR OVC006
     FM291600 34005KT 2SM -DZ BR OVC006
     FM292200 33003KT 4SM BR OVC009
     FM300300 29003KT 3SM -DZ BR OVC005=

USA.gov is the U.S. government's official web portal to all federal, state and local government web resources and services.